Miraero Ace — 3FIH4 — position and weather

sailwx.info

Track history (hours):
 
Tides and Currents Weather Stations Pressure Air Temp Water Temp Dewpoint Dewpoint Depression Visibility Wind Speed Wind Dir Waves Ship Positions

Miraero Ace

Last reported at 2015-Aug-02 05:30 UTC. Time now 2015-Aug-02 06:20 UTC.
Position N 05°22' E 100°22'.

Length 229 m; draft 10.5 m.

Type: Ship. MMSI: 373216000.

Date/timePositionNaut miles runAvg speedWind from/ knotsBaromVisibWave heightAir tempDewpointWater temp
2015-Aug-02 05:30N 05°22' E 100°22'0 0.0
2015-Aug-02 04:24N 05°22' E 100°22'0 0.0
2015-Aug-02 03:31N 05°22' E 100°22'0 0.0
2015-Aug-02 02:31N 05°22' E 100°22'0 0.0
2015-Aug-02 01:30N 05°22' E 100°22'0 0.0
2015-Aug-02 00:30N 05°22' E 100°22'0 0.0
2015-Aug-01 23:30N 05°22' E 100°22'0 0.0
2015-Aug-01 22:30N 05°22' E 100°22'0 0.0
2015-Aug-01 21:30N 05°22' E 100°22'0 0.0
2015-Aug-01 20:30N 05°22' E 100°22'0 0.0
2015-Aug-01 19:31N 05°22' E 100°22'0 0.0
2015-Aug-01 18:18N 05°22' E 100°22'0 0.0
2015-Aug-01 17:30N 05°22' E 100°22'0 0.0
2015-Aug-01 16:24N 05°22' E 100°22'0 0.0
2015-Aug-01 15:30N 05°22' E 100°22'0 0.0
2015-Aug-01 14:30N 05°22' E 100°22'0 0.0
2015-Aug-01 13:24N 05°22' E 100°22'0 0.0
2015-Aug-01 12:31N 05°22' E 100°22'0 0.0
2015-Aug-01 11:30N 05°22' E 100°22'0 0.0
2015-Aug-01 10:30N 05°22' E 100°22'0 0.0
2015-Aug-01 09:31N 05°22' E 100°22'0 0.0
2015-Aug-01 08:30N 05°22' E 100°22'0 0.0
2015-Aug-01 07:30N 05°22' E 100°22'0 0.0
2015-Aug-01 06:30N 05°22' E 100°22'0 0.0
2015-Aug-01 05:30N 05°22' E 100°22'0 0.0
2015-Aug-01 04:30N 05°22' E 100°22'0 0.0
2015-Aug-01 03:30N 05°22' E 100°22'0 0.0
2015-Aug-01 02:30N 05°22' E 100°22'0 0.0
2015-Aug-01 01:24N 05°22' E 100°22'0 0.0
2015-Aug-01 00:24N 05°22' E 100°22'0 0.0
2015-Jul-31 23:30N 05°22' E 100°22'0 0.0
2015-Jul-31 22:30N 05°22' E 100°22'0 0.0
2015-Jul-31 21:30N 05°22' E 100°22'0 0.0
2015-Jul-31 20:30N 05°22' E 100°22'0 0.0
2015-Jul-31 19:30N 05°22' E 100°22'0 0.0
2015-Jul-31 18:30N 05°22' E 100°22'0 0.0
2015-Jul-31 17:31N 05°22' E 100°22'0 0.0
2015-Jul-31 16:30N 05°22' E 100°22'0 0.0
2015-Jul-31 15:30N 05°22' E 100°22'0 0.0
2015-Jul-31 14:31N 05°22' E 100°22'0 0.0
2015-Jul-31 13:24N 05°22' E 100°22'0 0.0
2015-Jul-31 12:30N 05°22' E 100°22'0 0.0
2015-Jul-31 11:31N 05°22' E 100°22'0 0.0
2015-Jul-31 10:30N 05°22' E 100°22'0 0.0
2015-Jul-31 09:30N 05°22' E 100°22'0 0.0
2015-Jul-31 08:31N 05°22' E 100°22'0 0.0
2015-Jul-31 07:30N 05°22' E 100°22'0 0.0
2015-Jul-31 06:30N 05°22' E 100°22'0 0.0
2015-Jul-31 05:30N 05°22' E 100°22'0 0.0
2015-Jul-31 04:30N 05°22' E 100°22'0 0.0
2015-Jul-31 03:31N 05°22' E 100°22'0 0.0
2015-Jul-31 02:30N 05°22' E 100°22'0 0.0
2015-Jul-31 01:25N 05°22' E 100°22'0 0.0
2015-Jul-31 00:30N 05°22' E 100°22'0 0.0
2015-Jul-30 23:31N 05°22' E 100°22'0 0.0
2015-Jul-30 22:31N 05°22' E 100°22'0 0.0
2015-Jul-30 21:29N 05°22' E 100°22'4 3.9
2015-Jul-30 20:33N 05°26' E 100°21'1110.9
2015-Jul-30 19:33N 05°34' E 100°14'3 0.8
2015-Jul-30 15:18N 05°34' E 100°11'1 1.1
2015-Jul-30 14:05N 05°34' E 100°12'0 0.1
2015-Jul-30 13:29N 05°34' E 100°12'5 5.0
2015-Jul-30 12:33N 05°34' E 100°08'1010.6
2015-Jul-30 11:34N 05°37' E 099°58'1514.0
2015-Jul-30 10:29N 05°39' E 099°43'  
Track history (hours):
 
Tides and Currents Weather Stations Pressure Air Temp Water Temp Dewpoint Dewpoint Depression Visibility Wind Speed Wind Dir Waves Ship Positions

Miraero Ace

Last reported at 2015-Aug-02 05:30 UTC. Time now 2015-Aug-02 06:20 UTC.
Position N 05°22' E 100°22'.

Length 229 m; draft 10.5 m.

Type: Ship. MMSI: 373216000.

Date/timePositionNaut miles runAvg speedWind from/ knotsBaromVisibWave heightAir tempDewpointWater temp
2015-Aug-02 05:30N 05°22' E 100°22'0 0.0
2015-Aug-02 04:24N 05°22' E 100°22'0 0.0
2015-Aug-02 03:31N 05°22' E 100°22'0 0.0
2015-Aug-02 02:31N 05°22' E 100°22'0 0.0
2015-Aug-02 01:30N 05°22' E 100°22'0 0.0
2015-Aug-02 00:30N 05°22' E 100°22'0 0.0
2015-Aug-01 23:30N 05°22' E 100°22'0 0.0
2015-Aug-01 22:30N 05°22' E 100°22'0 0.0
2015-Aug-01 21:30N 05°22' E 100°22'0 0.0
2015-Aug-01 20:30N 05°22' E 100°22'0 0.0
2015-Aug-01 19:31N 05°22' E 100°22'0 0.0
2015-Aug-01 18:18N 05°22' E 100°22'0 0.0
2015-Aug-01 17:30N 05°22' E 100°22'0 0.0
2015-Aug-01 16:24N 05°22' E 100°22'0 0.0
2015-Aug-01 15:30N 05°22' E 100°22'0 0.0
2015-Aug-01 14:30N 05°22' E 100°22'0 0.0
2015-Aug-01 13:24N 05°22' E 100°22'0 0.0
2015-Aug-01 12:31N 05°22' E 100°22'0 0.0
2015-Aug-01 11:30N 05°22' E 100°22'0 0.0
2015-Aug-01 10:30N 05°22' E 100°22'0 0.0
2015-Aug-01 09:31N 05°22' E 100°22'0 0.0
2015-Aug-01 08:30N 05°22' E 100°22'0 0.0
2015-Aug-01 07:30N 05°22' E 100°22'0 0.0
2015-Aug-01 06:30N 05°22' E 100°22'0 0.0
2015-Aug-01 05:30N 05°22' E 100°22'0 0.0
2015-Aug-01 04:30N 05°22' E 100°22'0 0.0
2015-Aug-01 03:30N 05°22' E 100°22'0 0.0
2015-Aug-01 02:30N 05°22' E 100°22'0 0.0
2015-Aug-01 01:24N 05°22' E 100°22'0 0.0
2015-Aug-01 00:24N 05°22' E 100°22'0 0.0
2015-Jul-31 23:30N 05°22' E 100°22'0 0.0
2015-Jul-31 22:30N 05°22' E 100°22'0 0.0
2015-Jul-31 21:30N 05°22' E 100°22'0 0.0
2015-Jul-31 20:30N 05°22' E 100°22'0 0.0
2015-Jul-31 19:30N 05°22' E 100°22'0 0.0
2015-Jul-31 18:30N 05°22' E 100°22'0 0.0
2015-Jul-31 17:31N 05°22' E 100°22'0 0.0
2015-Jul-31 16:30N 05°22' E 100°22'0 0.0
2015-Jul-31 15:30N 05°22' E 100°22'0 0.0
2015-Jul-31 14:31N 05°22' E 100°22'0 0.0
2015-Jul-31 13:24N 05°22' E 100°22'0 0.0
2015-Jul-31 12:30N 05°22' E 100°22'0 0.0
2015-Jul-31 11:31N 05°22' E 100°22'0 0.0
2015-Jul-31 10:30N 05°22' E 100°22'0 0.0
2015-Jul-31 09:30N 05°22' E 100°22'0 0.0
2015-Jul-31 08:31N 05°22' E 100°22'0 0.0
2015-Jul-31 07:30N 05°22' E 100°22'0 0.0
2015-Jul-31 06:30N 05°22' E 100°22'0 0.0
2015-Jul-31 05:30N 05°22' E 100°22'0 0.0
2015-Jul-31 04:30N 05°22' E 100°22'0 0.0
2015-Jul-31 03:31N 05°22' E 100°22'0 0.0
2015-Jul-31 02:30N 05°22' E 100°22'0 0.0
2015-Jul-31 01:25N 05°22' E 100°22'0 0.0
2015-Jul-31 00:30N 05°22' E 100°22'0 0.0
2015-Jul-30 23:31N 05°22' E 100°22'0 0.0
2015-Jul-30 22:31N 05°22' E 100°22'0 0.0
2015-Jul-30 21:29N 05°22' E 100°22'4 3.9
2015-Jul-30 20:33N 05°26' E 100°21'1110.9
2015-Jul-30 19:33N 05°34' E 100°14'3 0.8
2015-Jul-30 15:18N 05°34' E 100°11'1 1.1
2015-Jul-30 14:05N 05°34' E 100°12'0 0.1
2015-Jul-30 13:29N 05°34' E 100°12'5 5.0
2015-Jul-30 12:33N 05°34' E 100°08'1010.6
2015-Jul-30 11:34N 05°37' E 099°58'1514.0
2015-Jul-30 10:29N 05°39' E 099°43'  

Dump ship's entire track history